Time;durP1;ratioP1;P1;durP2;ratioP2;P2;SDS_P1;SDS_P2;PMS_P1;PMS_P2;Temp;Humidity;BMP_temperature;BMP_pressure;BME280_temperature;BME280_humidity;BME280_pressure;Samples;Min_cycle;Max_cycle;Signal;HPM_P1;HPM_P2
2021/05/31 00:02:16;;;;;;;5.07;3.23;;;8.80;90.70;;;;;;5037636;28;20175;-78
2021/05/31 00:04:42;;;;;;;3.47;2.97;;;8.70;90.60;;;;;;5037211;28;20698;-78
2021/05/31 00:07:13;;;;;;;3.70;2.87;;;8.70;91.90;;;;;;5019391;28;20194;-78
2021/05/31 00:09:41;;;;;;;4.17;2.87;;;8.70;93.60;;;;;;5037318;28;20167;-78
2021/05/31 00:12:10;;;;;;;3.90;3.07;;;8.60;95.00;;;;;;5035349;28;20203;-78
2021/05/31 00:14:36;;;;;;;6.30;3.47;;;8.40;96.00;;;;;;5018789;28;20187;-77
2021/05/31 00:17:01;;;;;;;6.03;3.70;;;8.30;95.40;;;;;;5018892;28;20202;-78
2021/05/31 00:19:27;;;;;;;5.90;3.40;;;8.20;95.50;;;;;;5034475;28;20265;-78
2021/05/31 00:21:53;;;;;;;4.60;3.73;;;8.10;96.40;;;;;;5034934;28;20186;-77
2021/05/31 00:24:19;;;;;;;5.93;3.63;;;8.10;97.40;;;;;;5035550;28;20187;-77
2021/05/31 00:26:45;;;;;;;3.87;3.33;;;7.90;97.60;;;;;;5017652;28;20194;-77
2021/05/31 00:29:11;;;;;;;4.93;3.67;;;7.80;98.00;;;;;;5042359;28;20178;-77
2021/05/31 00:31:37;;;;;;;5.30;4.30;;;7.80;99.70;;;;;;5037694;28;20263;-77
2021/05/31 00:34:03;;;;;;;7.67;4.40;;;7.70;99.90;;;;;;5036683;28;20178;-78
2021/05/31 00:36:29;;;;;;;6.00;4.37;;;7.60;99.90;;;;;;5037092;28;20722;-78
2021/05/31 00:38:55;;;;;;;5.37;3.50;;;7.50;99.90;;;;;;5037102;28;20690;-78
2021/05/31 00:41:22;;;;;;;3.73;3.27;;;7.50;99.90;;;;;;5036104;28;20269;-78
2021/05/31 00:43:48;;;;;;;4.27;3.37;;;7.40;99.90;;;;;;5037015;28;20236;-78
2021/05/31 00:46:15;;;;;;;4.03;3.20;;;7.30;99.90;;;;;;5035358;28;20255;-78
2021/05/31 00:48:41;;;;;;;6.23;3.27;;;7.30;99.90;;;;;;5037738;28;20179;-78
2021/05/31 00:51:10;;;;;;;3.83;2.80;;;7.30;99.90;;;;;;5037713;28;20228;-78
2021/05/31 00:53:36;;;;;;;4.30;3.03;;;7.30;99.90;;;;;;5037382;28;20241;-78
2021/05/31 00:56:03;;;;;;;3.70;2.77;;;7.30;99.90;;;;;;5019512;28;20202;-78
2021/05/31 00:58:30;;;;;;;3.63;2.80;;;7.30;99.90;;;;;;5038042;28;20174;-78
2021/05/31 01:01:00;;;;;;;3.93;3.10;;;7.30;99.90;;;;;;5038002;28;20181;-78
2021/05/31 01:03:27;;;;;;;4.80;2.63;;;7.20;99.90;;;;;;5036600;28;20185;-77
2021/05/31 01:05:54;;;;;;;4.17;3.00;;;7.20;99.90;;;;;;5034041;28;20178;-77
2021/05/31 01:08:32;;;;;;;6.47;2.30;;;7.20;99.90;;;;;;5035578;28;20185;-78
2021/05/31 01:11:04;;;;;;;3.27;2.80;;;7.20;99.90;;;;;;5017534;28;20264;-78
2021/05/31 01:13:59;;;;;;;3.40;3.10;;;7.20;99.90;;;;;;5017829;28;20232;-78
2021/05/31 01:16:44;;;;;;;8.20;3.17;;;7.20;99.90;;;;;;5036727;28;20221;-78
2021/05/31 01:19:22;;;;;;;4.60;3.10;;;7.20;99.90;;;;;;5017338;28;20894;-77
2021/05/31 01:22:26;;;;;;;3.37;3.07;;;6.90;99.90;;;;;;5035189;28;20170;-78
2021/05/31 01:24:51;;;;;;;4.80;3.60;;;6.80;99.90;;;;;;4973558;28;20208;-77
2021/05/31 01:27:20;;;;;;;7.80;3.33;;;6.60;99.90;;;;;;5008320;28;20210;-78
2021/05/31 01:29:52;;;;;;;4.30;3.43;;;6.60;99.90;;;;;;5018443;28;20276;-77
2021/05/31 01:32:22;;;;;;;7.63;3.67;;;6.50;99.90;;;;;;5019525;28;20202;-78
2021/05/31 01:34:49;;;;;;;5.97;3.67;;;6.40;99.90;;;;;;5048510;28;20542;-78
2021/05/31 01:37:22;;;;;;;3.67;3.20;;;6.30;99.90;;;;;;5041459;28;20193;-78
2021/05/31 01:39:52;;;;;;;6.50;3.60;;;6.30;99.90;;;;;;5022965;28;20185;-78
2021/05/31 01:42:20;;;;;;;4.67;2.90;;;6.10;99.90;;;;;;5040044;28;20588;-78
2021/05/31 01:44:47;;;;;;;5.57;3.80;;;6.00;99.90;;;;;;5041271;28;20637;-78
2021/05/31 01:47:14;;;;;;;6.87;4.10;;;6.00;99.90;;;;;;5023358;28;20612;-78
2021/05/31 01:49:40;;;;;;;5.03;3.50;;;5.90;99.90;;;;;;5039727;28;20428;-78
2021/05/31 01:52:07;;;;;;;4.27;3.60;;;5.90;99.90;;;;;;5041209;28;20254;-78
2021/05/31 01:54:34;;;;;;;4.70;3.60;;;5.90;99.90;;;;;;5041350;28;20256;-78
2021/05/31 01:57:00;;;;;;;4.30;3.40;;;5.90;99.90;;;;;;5040422;28;20220;-78
2021/05/31 01:59:26;;;;;;;6.83;4.10;;;5.80;99.90;;;;;;5023097;28;20633;-78
2021/05/31 02:01:53;;;;;;;5.27;3.57;;;5.80;99.90;;;;;;5041757;28;20186;-78
2021/05/31 02:04:19;;;;;;;5.57;4.07;;;5.70;99.90;;;;;;5042035;28;20245;-78
2021/05/31 02:06:45;;;;;;;4.17;3.77;;;5.60;99.90;;;;;;5041681;28;20272;-78
2021/05/31 02:09:11;;;;;;;5.87;3.80;;;5.60;99.90;;;;;;5042723;28;20249;-78
2021/05/31 02:11:37;;;;;;;5.30;4.07;;;;;;;;;;5042290;28;20209;-78
2021/05/31 02:14:06;;;;;;;6.27;3.83;;;5.50;99.90;;;;;;5024374;28;20417;-78
2021/05/31 02:16:40;;;;;;;6.83;4.20;;;5.50;99.90;;;;;;5038048;28;20285;-77
2021/05/31 02:19:07;;;;;;;6.27;4.40;;;5.30;99.90;;;;;;5036835;28;20427;-78
2021/05/31 02:21:35;;;;;;;4.97;3.90;;;5.40;99.90;;;;;;5037738;28;20185;-77
2021/05/31 02:24:02;;;;;;;7.13;4.23;;;5.40;99.90;;;;;;5037346;28;20420;-77
2021/05/31 02:26:28;;;;;;;4.93;3.83;;;5.40;99.90;;;;;;5037182;28;20461;-78
2021/05/31 02:28:53;;;;;;;5.93;4.63;;;5.30;99.90;;;;;;5019378;28;20590;-77
2021/05/31 02:31:19;;;;;;;5.00;3.97;;;5.40;99.90;;;;;;5036361;28;20292;-77
2021/05/31 02:33:47;;;;;;;5.70;4.30;;;5.30;99.90;;;;;;5039854;28;20163;-78
2021/05/31 02:36:13;;;;;;;4.63;3.93;;;5.30;99.90;;;;;;5044506;28;20198;-78
2021/05/31 02:38:38;;;;;;;7.43;4.77;;;5.20;99.90;;;;;;5023125;28;20231;-78
2021/05/31 02:41:04;;;;;;;5.57;4.17;;;5.20;99.90;;;;;;5041272;28;20277;-78
2021/05/31 02:43:30;;;;;;;6.40;4.40;;;5.10;99.90;;;;;;5040970;28;20227;-78
2021/05/31 02:45:56;;;;;;;7.40;4.13;;;5.10;99.90;;;;;;5041439;28;20178;-78
2021/05/31 02:48:23;;;;;;;5.77;4.03;;;5.00;99.90;;;;;;5041437;28;20547;-78
2021/05/31 02:50:49;;;;;;;5.90;4.10;;;5.00;99.90;;;;;;5041438;28;20457;-78
2021/05/31 02:53:15;;;;;;;6.03;4.03;;;5.00;99.90;;;;;;5040425;28;20175;-78
2021/05/31 02:55:40;;;;;;;7.80;3.90;;;5.00;99.90;;;;;;5039729;28;20224;-78
2021/05/31 02:58:06;;;;;;;5.93;4.37;;;4.90;99.90;;;;;;5039271;28;20753;-78
2021/05/31 03:00:32;;;;;;;6.50;4.20;;;4.90;99.90;;;;;;5037233;28;20636;-78
2021/05/31 03:02:58;;;;;;;5.83;4.20;;;4.90;99.90;;;;;;5018967;28;20178;-77
2021/05/31 03:05:27;;;;;;;5.53;4.33;;;4.90;99.90;;;;;;5037783;28;20174;-78
2021/05/31 03:07:53;;;;;;;5.93;4.33;;;4.90;99.90;;;;;;5036872;28;20198;-78
2021/05/31 03:10:19;;;;;;;5.90;4.23;;;4.80;99.90;;;;;;5038090;28;20409;-78
2021/05/31 03:12:45;;;;;;;7.03;4.30;;;4.80;99.90;;;;;;5038619;28;20171;-78
2021/05/31 03:15:15;;;;;;;6.50;3.80;;;4.70;99.90;;;;;;5037446;28;20411;-78
2021/05/31 03:17:41;;;;;;;5.70;4.07;;;4.70;99.90;;;;;;5039653;28;20535;-77
2021/05/31 03:20:08;;;;;;;7.63;3.67;;;4.70;99.90;;;;;;5039632;28;20437;-77
2021/05/31 03:22:34;;;;;;;6.77;4.47;;;4.60;99.90;;;;;;5037300;28;20301;-78
2021/05/31 03:24:59;;;;;;;6.27;4.20;;;4.60;99.90;;;;;;5036239;28;20949;-77
2021/05/31 03:27:25;;;;;;;6.53;4.00;;;4.60;99.90;;;;;;5035460;28;20202;-78
2021/05/31 03:29:51;;;;;;;5.03;3.83;;;4.60;99.90;;;;;;5037040;28;20206;-77
2021/05/31 03:32:16;;;;;;;7.27;3.67;;;4.60;99.90;;;;;;5036721;28;20224;-77
2021/05/31 03:34:42;;;;;;;5.97;3.80;;;4.50;99.90;;;;;;5036519;28;20236;-78
2021/05/31 03:37:08;;;;;;;8.77;4.37;;;4.50;99.90;;;;;;5036749;28;20187;-77
2021/05/31 03:39:33;;;;;;;4.83;4.13;;;4.50;99.90;;;;;;5036767;28;20166;-78
2021/05/31 03:41:59;;;;;;;6.70;4.50;;;4.50;99.90;;;;;;5018315;28;20177;-78
2021/05/31 03:44:25;;;;;;;7.40;4.67;;;4.40;99.90;;;;;;5036596;28;20668;-77
2021/05/31 03:46:51;;;;;;;5.93;4.20;;;;;;;;;;5036455;28;20201;-78
2021/05/31 03:49:17;;;;;;;5.57;4.57;;;4.40;99.90;;;;;;5019619;28;20189;-78
2021/05/31 03:51:44;;;;;;;7.67;4.43;;;4.50;99.90;;;;;;5037150;28;20464;-78
2021/05/31 03:54:11;;;;;;;7.23;4.63;;;4.60;99.90;;;;;;5018638;28;20379;-78
2021/05/31 03:56:37;;;;;;;7.50;4.47;;;4.50;99.90;;;;;;5038000;28;20436;-78
2021/05/31 03:59:03;;;;;;;5.60;4.60;;;4.50;99.90;;;;;;5042099;28;20463;-79
2021/05/31 04:01:29;;;;;;;5.23;4.30;;;4.60;99.90;;;;;;5037304;28;20212;-78
2021/05/31 04:03:54;;;;;;;5.83;3.90;;;4.60;99.90;;;;;;5022239;28;20181;-79
2021/05/31 04:11:54;;;;;;;8.23;4.33;;;4.70;99.90;;;;;;5036289;28;20852;-78
2021/05/31 04:14:29;;;;;;;7.93;4.57;;;4.70;99.90;;;;;;5036066;28;20460;-78
2021/05/31 04:16:56;;;;;;;7.47;4.17;;;4.80;99.90;;;;;;5036051;28;20193;-78
2021/05/31 04:19:23;;;;;;;5.67;3.90;;;4.80;99.90;;;;;;5036578;28;20413;-78
2021/05/31 04:21:52;;;;;;;8.40;5.10;;;4.90;99.90;;;;;;5037101;28;20786;-78
2021/05/31 04:24:18;;;;;;;6.67;4.90;;;5.00;99.90;;;;;;5036135;28;20432;-78
2021/05/31 04:26:47;;;;;;;7.03;4.57;;;5.00;99.90;;;;;;5038426;28;20491;-78
2021/05/31 04:29:15;;;;;;;7.17;4.53;;;5.10;99.90;;;;;;5038537;28;20413;-78
2021/05/31 04:31:41;;;;;;;6.03;4.60;;;5.20;99.90;;;;;;5036496;28;20716;-78
2021/05/31 04:34:08;;;;;;;5.73;4.50;;;5.50;99.90;;;;;;5035085;28;20409;-77
2021/05/31 04:36:35;;;;;;;6.50;4.97;;;5.40;99.90;;;;;;5033957;28;20439;-78
2021/05/31 04:39:05;;;;;;;7.07;4.50;;;5.60;99.90;;;;;;5033514;28;20504;-78
2021/05/31 04:41:31;;;;;;;7.53;4.87;;;5.70;99.90;;;;;;5026257;28;20944;-78
2021/05/31 04:43:56;;;;;;;5.90;4.70;;;5.80;99.90;;;;;;5035147;28;20776;-78
2021/05/31 04:46:22;;;;;;;6.60;4.43;;;5.90;99.90;;;;;;5035274;28;20433;-78
2021/05/31 04:48:47;;;;;;;8.00;5.00;;;5.90;99.90;;;;;;5017820;28;20316;-77
2021/05/31 04:51:13;;;;;;;8.20;4.03;;;6.00;99.90;;;;;;5034508;28;20671;-77
2021/05/31 04:53:39;;;;;;;5.37;4.47;;;6.00;99.90;;;;;;5016925;28;20204;-77
2021/05/31 04:56:08;;;;;;;9.63;4.63;;;6.30;99.90;;;;;;5034094;28;20694;-77
2021/05/31 04:58:34;;;;;;;7.37;4.40;;;6.20;99.90;;;;;;5033333;28;20243;-77
2021/05/31 05:01:00;;;;;;;6.40;4.30;;;6.30;99.90;;;;;;5034024;28;20806;-77
2021/05/31 05:03:25;;;;;;;6.50;4.77;;;6.40;99.90;;;;;;5018194;28;20312;-78
2021/05/31 05:05:51;;;;;;;6.43;4.43;;;6.60;99.90;;;;;;5035694;28;20185;-78
2021/05/31 05:08:17;;;;;;;8.57;5.03;;;6.60;99.90;;;;;;5041686;28;20166;-78
2021/05/31 05:10:44;;;;;;;5.50;4.37;;;6.70;99.90;;;;;;5023273;28;20206;-78
2021/05/31 05:13:10;;;;;;;6.07;4.67;;;6.80;99.90;;;;;;5037952;28;20174;-78
2021/05/31 05:15:36;;;;;;;6.13;4.50;;;6.90;99.90;;;;;;5020245;28;20178;-77
2021/05/31 05:18:03;;;;;;;7.23;4.83;;;7.00;99.90;;;;;;5036276;28;20221;-79
2021/05/31 05:20:30;;;;;;;5.20;4.00;;;7.20;99.90;;;;;;5021794;28;20175;-79
2021/05/31 05:22:56;;;;;;;5.53;4.30;;;7.20;99.90;;;;;;5028382;28;20171;-79
2021/05/31 05:25:23;;;;;;;3.90;3.33;;;7.30;99.90;;;;;;5010398;28;20526;-79
2021/05/31 05:27:50;;;;;;;5.30;3.83;;;7.50;99.90;;;;;;5020053;28;20547;-78
2021/05/31 05:30:19;;;;;;;3.93;3.20;;;7.60;99.90;;;;;;5002479;28;20175;-77
2021/05/31 05:32:49;;;;;;;6.47;3.63;;;7.70;99.90;;;;;;5026909;28;20171;-77
2021/05/31 05:35:25;;;;;;;5.30;3.63;;;7.90;99.90;;;;;;5028439;28;20242;-77
2021/05/31 05:48:02;;;;;;;11.67;3.50;;;8.40;99.90;;;;;;5038554;28;20206;-79
2021/05/31 05:50:28;;;;;;;10.47;3.43;;;8.50;99.90;;;;;;5029375;28;20539;-78
2021/05/31 05:52:53;;;;;;;12.17;4.10;;;8.60;99.90;;;;;;5022428;28;20660;-79
2021/05/31 05:55:19;;;;;;;5.93;4.00;;;8.70;99.90;;;;;;5024015;28;20171;-79
2021/05/31 05:57:45;;;;;;;7.07;3.87;;;8.90;99.90;;;;;;5018693;28;20199;-77
2021/05/31 06:00:16;;;;;;;9.60;3.33;;;9.00;99.90;;;;;;5002393;28;20179;-78
2021/05/31 06:02:42;;;;;;;4.37;3.40;;;9.20;99.90;;;;;;5019665;28;20152;-78
2021/05/31 06:05:09;;;;;;;11.70;3.57;;;9.30;99.90;;;;;;5019473;28;20240;-78
2021/05/31 06:07:35;;;;;;;5.03;3.03;;;9.40;99.90;;;;;;5018222;28;20219;-78
2021/05/31 06:10:01;;;;;;;3.40;2.80;;;9.60;99.90;;;;;;4999698;28;20185;-78
2021/05/31 06:12:28;;;;;;;3.47;2.80;;;9.90;99.90;;;;;;5018803;28;20295;-77
2021/05/31 06:14:54;;;;;;;7.73;3.47;;;10.10;99.90;;;;;;5001381;28;20163;-78
2021/05/31 06:17:20;;;;;;;4.07;3.57;;;10.30;99.90;;;;;;5017716;28;20195;-77
2021/05/31 06:19:46;;;;;;;8.67;3.37;;;10.40;99.90;;;;;;5033434;28;20217;-78
2021/05/31 06:22:11;;;;;;;4.90;3.20;;;10.60;99.90;;;;;;5039700;28;20241;-78
2021/05/31 06:24:38;;;;;;;6.07;2.50;;;10.80;99.90;;;;;;5038887;28;20270;-78
2021/05/31 06:27:04;;;;;;;3.27;2.03;;;10.90;99.90;;;;;;5038573;28;20205;-78
2021/05/31 06:29:30;;;;;;;2.70;2.00;;;11.20;99.90;;;;;;5020142;28;20182;-79
2021/05/31 06:31:55;;;;;;;3.10;2.10;;;11.40;99.90;;;;;;5047952;28;20228;-78
2021/05/31 06:34:21;;;;;;;4.27;2.20;;;11.60;99.90;;;;;;5039717;28;20220;-78
2021/05/31 06:36:48;;;;;;;4.13;2.03;;;11.80;99.90;;;;;;5022205;28;20196;-78
2021/05/31 06:39:14;;;;;;;5.87;2.00;;;12.00;99.90;;;;;;5033691;28;20224;-78
2021/05/31 06:41:40;;;;;;;5.87;2.20;;;12.20;99.90;;;;;;5019638;28;20692;-79
2021/05/31 06:44:06;;;;;;;4.10;2.23;;;12.30;99.90;;;;;;5002754;28;20186;-78
2021/05/31 06:46:32;;;;;;;5.33;2.40;;;12.50;99.90;;;;;;5020421;28;20249;-78
2021/05/31 06:48:58;;;;;;;5.33;2.57;;;12.70;99.90;;;;;;5004283;28;20186;-78
2021/05/31 06:51:24;;;;;;;5.77;2.40;;;12.80;99.90;;;;;;5008208;28;20262;-78
2021/05/31 06:53:49;;;;;;;3.03;2.13;;;12.90;99.90;;;;;;5026597;28;20176;-79
2021/05/31 06:56:16;;;;;;;4.83;2.53;;;12.90;99.90;;;;;;5003049;28;20179;-79
2021/05/31 06:58:43;;;;;;;6.90;2.60;;;12.90;99.90;;;;;;5002837;28;20333;-79
2021/05/31 07:01:10;;;;;;;6.37;2.43;;;13.00;99.90;;;;;;5019808;28;20174;-78
2021/05/31 07:03:37;;;;;;;3.00;2.07;;;13.10;99.90;;;;;;5002027;28;20185;-79
2021/05/31 07:06:04;;;;;;;2.93;2.23;;;13.20;99.90;;;;;;5019464;28;20698;-79
2021/05/31 07:08:30;;;;;;;5.00;2.43;;;13.30;99.00;;;;;;5002308;28;20183;-79
2021/05/31 07:10:57;;;;;;;2.47;2.10;;;13.40;99.00;;;;;;5020363;28;20204;-79
2021/05/31 07:13:23;;;;;;;4.03;1.97;;;13.50;99.90;;;;;;5020473;28;20257;-79
2021/05/31 07:15:51;;;;;;;2.97;2.10;;;13.60;99.10;;;;;;5020387;28;20264;-79
2021/05/31 07:18:19;;;;;;;3.53;2.00;;;13.60;97.50;;;;;;5020674;28;20199;-79
2021/05/31 07:20:46;;;;;;;3.17;1.90;;;13.70;97.40;;;;;;5002744;28;20183;-79
2021/05/31 07:23:11;;;;;;;4.80;1.97;;;13.90;96.50;;;;;;5020809;28;20648;-79
2021/05/31 07:25:37;;;;;;;4.60;2.00;;;14.00;97.10;;;;;;5003832;28;20370;-79
2021/05/31 07:28:03;;;;;;;3.07;1.90;;;14.10;95.70;;;;;;5021515;28;20206;-79
2021/05/31 07:30:30;;;;;;;3.80;1.67;;;14.40;97.00;;;;;;5020784;28;20178;-79
2021/05/31 07:32:55;;;;;;;2.87;2.13;;;14.40;94.60;;;;;;5002007;28;20175;-79
2021/05/31 07:35:22;;;;;;;4.50;1.90;;;14.40;95.40;;;;;;5018414;28;20263;-79
2021/05/31 07:37:48;;;;;;;2.83;1.90;;;14.60;93.40;;;;;;5019890;28;20198;-79
2021/05/31 07:40:16;;;;;;;3.50;1.80;;;14.70;93.30;;;;;;5020775;28;20178;-79
2021/05/31 07:42:43;;;;;;;4.23;2.00;;;14.80;93.80;;;;;;5021316;28;20179;-79
2021/05/31 07:45:09;;;;;;;2.10;1.53;;;14.90;91.70;;;;;;5005124;28;20189;-78
2021/05/31 07:47:35;;;;;;;3.20;1.90;;;14.90;91.70;;;;;;5019724;28;20680;-79
2021/05/31 07:50:02;;;;;;;3.63;1.70;;;15.00;90.00;;;;;;5032767;28;20240;-79
2021/05/31 07:52:28;;;;;;;2.67;1.70;;;15.00;88.80;;;;;;5018164;28;20234;-79
2021/05/31 07:54:55;;;;;;;2.30;1.90;;;15.20;86.20;;;;;;5002309;28;20175;-79
2021/05/31 07:57:21;;;;;;;6.20;1.80;;;15.20;85.00;;;;;;5018679;28;20233;-79
2021/05/31 07:59:48;;;;;;;5.80;1.97;;;15.30;88.60;;;;;;5019573;28;20167;-79
2021/05/31 08:02:14;;;;;;;4.17;1.63;;;15.30;85.10;;;;;;5001219;28;20641;-79
2021/05/31 08:04:40;;;;;;;3.00;1.67;;;15.40;85.00;;;;;;5001044;28;20184;-78
2021/05/31 08:07:07;;;;;;;3.07;1.60;;;15.60;84.30;;;;;;5017068;28;20207;-79
2021/05/31 08:09:33;;;;;;;3.83;1.60;;;15.80;90.10;;;;;;5000582;28;20179;-79
2021/05/31 08:11:59;;;;;;;4.60;1.70;;;16.00;82.00;;;;;;5018367;28;20205;-79
2021/05/31 08:14:25;;;;;;;2.80;2.00;;;16.00;83.10;;;;;;5000917;28;20186;-79
2021/05/31 08:16:52;;;;;;;3.30;1.90;;;16.00;90.00;;;;;;4999797;28;20202;-79
2021/05/31 08:19:19;;;;;;;2.03;1.67;;;16.10;81.50;;;;;;5019875;28;20595;-78
2021/05/31 08:21:46;;;;;;;3.33;1.70;;;16.20;83.30;;;;;;5017322;28;20699;-79
2021/05/31 08:24:12;;;;;;;3.23;2.03;;;16.20;80.00;;;;;;5017563;28;20199;-79
2021/05/31 08:26:39;;;;;;;3.17;2.07;;;16.30;79.20;;;;;;4999515;28;20681;-82
2021/05/31 08:29:05;;;;;;;3.83;1.70;;;16.60;82.60;;;;;;5017393;28;20172;-80
2021/05/31 08:31:31;;;;;;;4.03;1.60;;;17.20;85.00;;;;;;4999685;28;20214;-79
2021/05/31 08:33:57;;;;;;;2.90;1.50;;;17.80;75.00;;;;;;5018257;28;20183;-79
2021/05/31 08:36:24;;;;;;;1.97;1.57;;;18.60;78.60;;;;;;5036045;28;20187;-80
2021/05/31 08:38:52;;;;;;;4.10;1.80;;;19.00;78.00;;;;;;5045147;28;20189;-80
2021/05/31 08:41:18;;;;;;;4.13;1.70;;;19.30;74.60;;;;;;5038427;28;20185;-79
2021/05/31 08:43:44;;;;;;;2.37;1.77;;;19.80;68.00;;;;;;5038101;28;20179;-80
2021/05/31 08:46:10;;;;;;;3.63;1.60;;;20.20;66.90;;;;;;5018704;28;20185;-80
2021/05/31 08:48:36;;;;;;;5.07;2.10;;;20.30;68.20;;;;;;5038775;28;20261;-79
2021/05/31 08:51:02;;;;;;;4.63;1.90;;;19.90;66.80;;;;;;5039162;28;20226;-79
2021/05/31 08:53:28;;;;;;;2.40;2.00;;;20.10;67.80;;;;;;5039342;28;20186;-79
2021/05/31 08:55:54;;;;;;;2.07;1.87;;;20.10;65.30;;;;;;5038377;28;20181;-80
2021/05/31 08:58:19;;;;;;;2.00;1.80;;;20.10;66.40;;;;;;5048162;28;20245;-79
2021/05/31 09:00:46;;;;;;;5.13;2.30;;;20.40;65.00;;;;;;5054709;28;20182;-79
2021/05/31 09:03:11;;;;;;;7.63;2.50;;;20.60;65.60;;;;;;5052054;28;20202;-79
2021/05/31 09:05:39;;;;;;;3.40;2.00;;;21.00;63.50;;;;;;5023364;28;20197;-79
2021/05/31 09:08:10;;;;;;;4.33;2.03;;;21.30;62.30;;;;;;5038323;28;20549;-79
2021/05/31 09:10:45;;;;;;;5.03;2.07;;;21.10;60.50;;;;;;5039057;28;20270;-79
2021/05/31 09:13:40;;;;;;;2.50;1.90;;;21.00;64.80;;;;;;5038822;28;20158;-78
2021/05/31 09:16:21;;;;;;;2.50;2.03;;;21.40;60.50;;;;;;5021140;28;20198;-79
2021/05/31 09:18:51;;;;;;;3.87;2.43;;;21.20;59.50;;;;;;5039207;28;20238;-79
2021/05/31 09:21:24;;;;;;;4.07;2.13;;;20.80;60.50;;;;;;5038852;28;20178;-79
2021/05/31 09:23:56;;;;;;;3.90;2.30;;;20.40;60.40;;;;;;5039059;28;20170;-78
2021/05/31 09:26:22;;;;;;;1.73;1.63;;;20.40;64.30;;;;;;5038301;28;20226;-79
2021/05/31 09:28:59;;;;;;;3.60;2.07;;;20.70;60.00;;;;;;5038123;28;20177;-79
2021/05/31 09:31:26;;;;;;;4.27;2.10;;;21.40;62.50;;;;;;5037806;28;20229;-79
2021/05/31 09:34:12;;;;;;;4.13;2.20;;;21.50;61.00;;;;;;5039786;28;20168;-79
2021/05/31 09:36:50;;;;;;;3.23;1.97;;;21.50;60.20;;;;;;5041998;28;20187;-81
2021/05/31 09:39:16;;;;;;;5.27;2.40;;;21.30;59.10;;;;;;5043403;28;20175;-79
2021/05/31 09:41:42;;;;;;;4.63;2.37;;;20.80;59.20;;;;;;5042371;28;20189;-80
2021/05/31 09:44:09;;;;;;;2.10;1.90;;;20.50;61.70;;;;;;5022176;28;20571;-79
2021/05/31 09:46:43;;;;;;;4.23;2.27;;;20.70;64.90;;;;;;5039814;28;20687;-79
2021/05/31 09:49:23;;;;;;;3.27;2.50;;;21.00;59.40;;;;;;5039340;28;20169;-78
2021/05/31 09:51:55;;;;;;;4.20;2.43;;;21.10;59.90;;;;;;5022519;28;20206;-80
2021/05/31 09:54:47;;;;;;;3.53;2.17;;;21.10;62.10;;;;;;5040765;28;20493;-78
2021/05/31 09:57:22;;;;;;;4.50;2.27;;;21.30;62.30;;;;;;5003294;28;20722;-78
2021/05/31 10:00:02;;;;;;;3.23;1.93;;;21.30;56.60;;;;;;5022730;28;20170;-78
2021/05/31 10:02:37;;;;;;;3.17;1.93;;;21.20;61.60;;;;;;5023642;28;20159;-80
2021/05/31 10:05:51;;;;;;;1.90;1.70;;;21.30;58.60;;;;;;5022715;28;20159;-78
2021/05/31 10:10:38;;;;;;;3.87;2.00;;;21.60;59.40;;;;;;5019404;28;20174;-78
2021/05/31 10:13:04;;;;;;;3.27;2.07;;;21.80;60.60;;;;;;5017423;28;20253;-74
2021/05/31 10:15:41;;;;;;;2.80;2.20;;;21.80;57.80;;;;;;5016421;28;20181;-78
2021/05/31 10:18:09;;;;;;;3.37;1.90;;;21.30;57.50;;;;;;4998871;28;20245;-77
2021/05/31 10:20:39;;;;;;;3.87;2.10;;;21.20;57.10;;;;;;5016368;28;20169;-77
2021/05/31 10:23:06;;;;;;;4.97;2.50;;;21.10;57.50;;;;;;5016218;28;20176;-77
2021/05/31 10:25:33;;;;;;;2.50;1.70;;;21.20;57.10;;;;;;4998906;28;20219;-77
2021/05/31 10:28:14;;;;;;;9.70;2.67;;;21.40;57.10;;;;;;5016372;28;20200;-77
2021/05/31 10:30:46;;;;;;;2.10;1.90;;;21.40;57.60;;;;;;5018177;28;20163;-74
2021/05/31 10:33:13;;;;;;;2.30;1.90;;;21.70;57.20;;;;;;5035566;28;20161;-77
2021/05/31 10:35:39;;;;;;;3.47;1.80;;;21.70;56.90;;;;;;5020014;28;20254;-76
2021/05/31 10:38:20;;;;;;;4.67;1.83;;;22.00;57.50;;;;;;5019717;28;20227;-78
2021/05/31 10:40:54;;;;;;;2.70;2.50;;;22.10;55.60;;;;;;5038059;28;20169;-78
2021/05/31 10:43:25;;;;;;;4.33;2.00;;;21.60;56.80;;;;;;5021956;28;20188;-77
2021/05/31 10:46:02;;;;;;;3.07;2.47;;;21.70;58.40;;;;;;5044372;28;20185;-79
2021/05/31 10:48:31;;;;;;;4.10;3.07;;;22.00;58.70;;;;;;5038398;28;20174;-79
2021/05/31 10:51:10;;;;;;;6.17;2.90;;;21.70;54.10;;;;;;5041335;28;20195;-78
2021/05/31 10:53:38;;;;;;;4.00;1.90;;;21.60;52.90;;;;;;5040883;28;20153;-78
2021/05/31 10:56:05;;;;;;;2.70;1.40;;;21.70;54.60;;;;;;5023660;28;20257;-78
2021/05/31 10:58:31;;;;;;;3.20;1.77;;;21.90;55.10;;;;;;5022394;28;20171;-78
2021/05/31 11:01:08;;;;;;;2.43;1.70;;;22.10;52.90;;;;;;5020080;28;20181;-78
2021/05/31 11:03:46;;;;;;;3.07;2.20;;;22.20;52.50;;;;;;5013493;28;20207;-79
2021/05/31 11:06:13;;;;;;;3.93;1.80;;;22.00;54.50;;;;;;5003333;28;20186;-78
2021/05/31 11:08:57;;;;;;;2.97;2.30;;;22.30;51.80;;;;;;5020530;28;20181;-79
2021/05/31 11:11:48;;;;;;;3.27;2.00;;;22.60;53.30;;;;;;5020525;28;20195;-77
2021/05/31 11:14:16;;;;;;;2.60;1.90;;;23.00;54.00;;;;;;5015479;28;20693;-76
2021/05/31 11:17:13;;;;;;;6.57;2.10;;;23.10;52.90;;;;;;5016464;28;20195;-78
2021/05/31 11:19:47;;;;;;;4.23;2.00;;;23.20;53.70;;;;;;5000475;28;20675;-79
2021/05/31 11:22:17;;;;;;;3.93;2.00;;;23.30;51.40;;;;;;5003914;28;20169;-79
2021/05/31 11:24:50;;;;;;;2.53;2.13;;;23.40;50.30;;;;;;5002239;28;20199;-78
2021/05/31 11:27:15;;;;;;;3.47;1.87;;;23.30;52.80;;;;;;5018039;28;20278;-76
2021/05/31 11:29:41;;;;;;;4.83;2.00;;;23.60;48.50;;;;;;5020157;28;20208;-79
2021/05/31 11:32:07;;;;;;;3.40;2.50;;;23.60;48.60;;;;;;5019755;28;20558;-79
2021/05/31 11:34:33;;;;;;;5.30;2.60;;;24.10;51.80;;;;;;5016714;28;20176;-76
2021/05/31 11:37:00;;;;;;;2.80;1.83;;;24.20;50.20;;;;;;5018938;28;20672;-79
2021/05/31 11:39:32;;;;;;;3.43;2.20;;;24.70;49.10;;;;;;5016164;28;20178;-79
2021/05/31 11:41:58;;;;;;;5.17;2.10;;;24.90;49.30;;;;;;4997705;28;20224;-77
2021/05/31 11:44:31;;;;;;;3.40;2.00;;;24.80;46.90;;;;;;4997723;28;20264;-76
2021/05/31 11:47:02;;;;;;;5.53;2.23;;;24.70;45.60;;;;;;5015184;28;20680;-76
2021/05/31 11:49:30;;;;;;;2.87;2.13;;;24.80;47.30;;;;;;4997784;28;20230;-78
2021/05/31 11:52:00;;;;;;;6.57;2.00;;;24.70;46.70;;;;;;5016517;28;20203;-80
2021/05/31 11:54:28;;;;;;;4.80;1.93;;;25.00;47.10;;;;;;5022940;28;20180;-80
2021/05/31 11:56:58;;;;;;;3.00;1.93;;;25.40;46.40;;;;;;5018117;28;20199;-79
2021/05/31 11:59:31;;;;;;;2.97;2.17;;;25.50;49.10;;;;;;5004592;28;20176;-78
2021/05/31 12:01:58;;;;;;;5.40;1.90;;;25.80;48.80;;;;;;5005936;28;20597;-77
2021/05/31 12:04:27;;;;;;;2.93;1.90;;;26.20;47.10;;;;;;5026501;28;20210;-77
2021/05/31 12:07:02;;;;;;;6.00;1.67;;;26.50;44.70;;;;;;5019874;28;20225;-78
2021/05/31 12:09:28;;;;;;;3.20;1.70;;;26.20;44.10;;;;;;5031143;28;20161;-78
2021/05/31 12:11:55;;;;;;;4.17;2.00;;;26.50;43.00;;;;;;5006479;28;20207;-78
2021/05/31 12:14:24;;;;;;;3.77;2.10;;;26.90;45.20;;;;;;5006872;28;20174;-78
2021/05/31 12:17:01;;;;;;;3.60;2.07;;;27.20;43.10;;;;;;5019779;28;20244;-80
2021/05/31 12:19:28;;;;;;;6.07;2.33;;;26.80;43.00;;;;;;5017524;28;20166;-80
2021/05/31 12:21:58;;;;;;;3.40;2.37;;;26.80;46.30;;;;;;5039949;28;20667;-78
2021/05/31 12:24:31;;;;;;;5.10;2.30;;;26.50;43.20;;;;;;5022065;28;20189;-79
2021/05/31 12:26:59;;;;;;;2.77;2.43;;;26.50;43.60;;;;;;5040363;28;20213;-80
2021/05/31 12:29:36;;;;;;;4.20;2.57;;;26.70;46.20;;;;;;5040761;28;20174;-79
2021/05/31 12:32:06;;;;;;;5.40;2.87;;;26.80;45.00;;;;;;5017039;28;20633;-78
2021/05/31 12:34:33;;;;;;;3.13;2.33;;;26.90;45.80;;;;;;5017350;28;20206;-79
2021/05/31 12:37:00;;;;;;;5.90;2.40;;;27.10;46.50;;;;;;5006970;28;20565;-79
2021/05/31 12:39:26;;;;;;;6.07;2.43;;;27.10;46.20;;;;;;5022852;28;20257;-80
2021/05/31 12:41:52;;;;;;;4.17;2.50;;;27.10;48.40;;;;;;5022767;28;20228;-79
2021/05/31 12:44:18;;;;;;;7.77;2.57;;;27.10;48.20;;;;;;5020710;28;20724;-79
2021/05/31 12:46:45;;;;;;;8.40;2.53;;;26.10;45.60;;;;;;5001756;28;20235;-80
2021/05/31 12:49:15;;;;;;;9.47;2.07;;;26.30;46.40;;;;;;5003284;28;20280;-80
2021/05/31 12:51:56;;;;;;;4.10;2.10;;;26.40;47.80;;;;;;5017289;28;20200;-76
2021/05/31 12:54:23;;;;;;;6.67;2.33;;;26.00;46.70;;;;;;5014112;28;20201;-76
2021/05/31 12:56:50;;;;;;;5.23;2.43;;;26.00;46.90;;;;;;5015466;28;20200;-77
2021/05/31 12:59:22;;;;;;;5.17;2.70;;;26.30;47.60;;;;;;5014373;28;20198;-76
2021/05/31 13:01:48;;;;;;;3.43;2.00;;;25.30;47.10;;;;;;5014572;28;20174;-76
2021/05/31 13:04:14;;;;;;;2.67;2.00;;;25.40;49.00;;;;;;5014018;28;20256;-76
2021/05/31 13:06:42;;;;;;;2.73;2.07;;;25.50;46.20;;;;;;5013927;28;20201;-76
2021/05/31 13:09:20;;;;;;;2.80;2.40;;;25.90;48.40;;;;;;4996240;28;20548;-77
2021/05/31 13:11:46;;;;;;;2.20;2.00;;;26.00;48.50;;;;;;5013949;28;20226;-77
2021/05/31 13:14:25;;;;;;;5.07;2.40;;;26.40;47.90;;;;;;4997056;28;20263;-77
2021/05/31 13:16:58;;;;;;;5.80;2.40;;;26.50;46.10;;;;;;4997158;28;20207;-77
2021/05/31 13:19:26;;;;;;;3.07;2.40;;;26.20;46.20;;;;;;5015939;28;20177;-77